Time;durP1;ratioP1;P1;durP2;ratioP2;P2;SDS_P1;SDS_P2;PMS_P1;PMS_P2;Temp;Humidity;BMP_temperature;BMP_pressure;BME280_temperature;BME280_humidity;BME280_pressure;Samples;Min_cycle;Max_cycle;Signal;HPM_P1;HPM_P2
2022/12/26 04:21:02;;;;;;;84.47;29.33;;;8.70;99.90;;;;;;6046293;23;20389;-85
2022/12/26 04:46:21;;;;;;;80.93;29.10;;;8.50;99.90;;;;;;6045795;23;20015;-88
2022/12/26 04:51:34;;;;;;;56.80;22.00;;;8.40;99.90;;;;;;6045235;23;20055;-85
2022/12/26 04:53:59;;;;;;;76.55;29.05;;;8.40;99.90;;;;;;6046683;23;20022;-89
2022/12/26 04:56:25;;;;;;;82.53;29.13;;;8.50;99.90;;;;;;6045243;23;20022;-88
2022/12/26 04:58:51;;;;;;;72.25;28.42;;;8.40;99.90;;;;;;6047372;23;20015;-88
2022/12/26 05:09:34;;;;;;;62.28;24.80;;;8.40;99.90;;;;;;6044766;23;20094;-87
2022/12/26 05:12:08;;;;;;;68.93;27.00;;;8.40;99.90;;;;;;6019324;23;20046;-86
2022/12/26 05:14:35;;;;;;;68.15;25.27;;;8.40;99.90;;;;;;6020548;23;20015;-88
2022/12/26 05:30:56;;;;;;;59.47;23.85;;;8.30;99.90;;;;;;6020995;23;20349;-88
2022/12/26 05:36:06;;;;;;;59.72;26.08;;;8.30;99.90;;;;;;6020411;23;20023;-88
2022/12/26 05:38:32;;;;;;;58.05;24.00;;;8.20;99.90;;;;;;6020626;23;20422;-88
2022/12/26 05:40:57;;;;;;;60.10;25.88;;;8.20;99.90;;;;;;6020985;23;20071;-88
2022/12/26 05:43:23;;;;;;;55.40;23.48;;;8.30;99.90;;;;;;6020677;23;20346;-87
2022/12/26 05:45:49;;;;;;;48.08;20.58;;;8.30;99.90;;;;;;6020910;23;20019;-89
2022/12/26 05:48:14;;;;;;;54.35;23.42;;;8.30;99.90;;;;;;6020580;23;20019;-87
2022/12/26 05:50:40;;;;;;;52.53;22.95;;;8.30;99.90;;;;;;6044383;23;20012;-89
2022/12/26 05:53:05;;;;;;;56.83;24.20;;;8.30;99.90;;;;;;6019769;23;20020;-87
2022/12/26 05:55:31;;;;;;;52.58;24.38;;;8.30;99.90;;;;;;6045098;23;20035;-88
2022/12/26 05:57:59;;;;;;;53.15;24.77;;;8.30;99.90;;;;;;6020458;23;20015;-87
2022/12/26 06:00:25;;;;;;;50.85;21.92;;;8.30;99.90;;;;;;6019822;23;20017;-88
2022/12/26 06:02:50;;;;;;;48.97;21.75;;;8.40;99.90;;;;;;6034842;23;20018;-88
2022/12/26 06:05:16;;;;;;;53.28;22.75;;;8.40;99.90;;;;;;6049346;23;20010;-87
2022/12/26 06:07:42;;;;;;;47.20;22.88;;;8.40;99.90;;;;;;6025322;23;20348;-87
2022/12/26 06:10:08;;;;;;;46.17;23.25;;;8.40;99.90;;;;;;6050385;23;20075;-86
2022/12/26 06:12:34;;;;;;;49.08;21.70;;;8.40;99.90;;;;;;6072253;23;20449;-87
2022/12/26 06:15:00;;;;;;;49.90;23.58;;;8.40;99.90;;;;;;6072140;23;20015;-85
2022/12/26 06:17:26;;;;;;;48.45;22.08;;;8.40;99.90;;;;;;6023050;23;20015;-87
2022/12/26 06:19:51;;;;;;;47.13;22.92;;;8.50;99.90;;;;;;6046879;23;20061;-87
2022/12/26 06:22:17;;;;;;;47.78;22.20;;;8.50;99.90;;;;;;6048425;23;20019;-87
2022/12/26 06:24:42;;;;;;;45.00;21.63;;;8.40;99.90;;;;;;6048838;23;20464;-88
2022/12/26 06:27:08;;;;;;;47.38;21.55;;;8.50;99.90;;;;;;6049378;23;20057;-86
2022/12/26 06:29:35;;;;;;;45.92;21.10;;;8.50;99.90;;;;;;6049351;23;20030;-88
2022/12/26 06:32:00;;;;;;;42.45;20.58;;;8.50;99.90;;;;;;6075255;23;20018;-87
2022/12/26 06:34:26;;;;;;;41.85;19.83;;;8.50;99.90;;;;;;6074916;23;20007;-86
2022/12/26 06:36:54;;;;;;;38.60;18.35;;;8.50;99.90;;;;;;6048586;23;20015;-88
2022/12/26 06:39:20;;;;;;;41.05;18.30;;;8.50;99.90;;;;;;6025148;23;20098;-87
2022/12/26 06:41:46;;;;;;;39.80;19.70;;;8.50;99.90;;;;;;6047748;23;20023;-86
2022/12/26 06:44:12;;;;;;;40.28;18.08;;;8.50;99.90;;;;;;6047426;23;20053;-88
2022/12/26 06:46:37;;;;;;;39.13;17.48;;;8.50;99.90;;;;;;6024798;23;20345;-87
2022/12/26 06:49:05;;;;;;;34.88;18.23;;;8.50;99.90;;;;;;6048230;23;20094;-87
2022/12/26 06:51:31;;;;;;;36.50;17.80;;;8.40;99.90;;;;;;6048458;23;20094;-86
2022/12/26 06:54:01;;;;;;;35.70;18.00;;;8.50;99.90;;;;;;6073654;23;20007;-88
2022/12/26 06:56:27;;;;;;;37.15;17.52;;;8.40;99.90;;;;;;6048243;23;20014;-87
2022/12/26 06:59:02;;;;;;;34.45;17.90;;;8.50;99.90;;;;;;6074005;23;20365;-87
2022/12/26 07:01:29;;;;;;;31.87;15.27;;;8.50;99.90;;;;;;6047925;23;20023;-87
2022/12/26 07:03:55;;;;;;;34.33;17.08;;;8.50;99.90;;;;;;6047971;23;20279;-85
2022/12/26 07:06:30;;;;;;;31.70;15.50;;;8.50;99.90;;;;;;6047654;23;20046;-87
2022/12/26 07:08:58;;;;;;;30.55;15.70;;;8.50;99.90;;;;;;6047040;23;20082;-89
2022/12/26 07:11:27;;;;;;;27.77;14.55;;;8.50;99.90;;;;;;6024126;23;20085;-88
2022/12/26 07:13:54;;;;;;;28.63;14.20;;;8.50;99.90;;;;;;6074302;23;20014;-88
2022/12/26 07:16:20;;;;;;;24.98;12.45;;;8.50;99.90;;;;;;6073060;23;20017;-87
2022/12/26 07:18:45;;;;;;;26.23;13.82;;;8.60;99.90;;;;;;6072856;23;20374;-87
2022/12/26 07:21:13;;;;;;;21.83;10.82;;;8.60;99.90;;;;;;6023979;23;20026;-87
2022/12/26 07:23:39;;;;;;;24.08;11.75;;;8.60;99.90;;;;;;6048289;23;20019;-87
2022/12/26 07:26:05;;;;;;;25.13;11.27;;;8.60;99.90;;;;;;6047331;23;20019;-86
2022/12/26 07:28:31;;;;;;;23.67;11.45;;;8.60;99.90;;;;;;6045925;23;20026;-87
2022/12/26 07:30:59;;;;;;;23.60;11.68;;;8.60;99.90;;;;;;6047599;23;20070;-88
2022/12/26 07:33:25;;;;;;;21.85;11.30;;;8.60;99.90;;;;;;6023675;23;19999;-87
2022/12/26 07:35:51;;;;;;;20.83;10.90;;;8.60;99.90;;;;;;6045699;23;20021;-87
2022/12/26 07:38:16;;;;;;;23.15;11.57;;;8.60;99.90;;;;;;6047343;23;20015;-88
2022/12/26 07:40:42;;;;;;;17.45;9.80;;;8.60;99.90;;;;;;6022477;23;20464;-88
2022/12/26 07:43:08;;;;;;;21.42;10.70;;;8.60;99.90;;;;;;6046466;23;20019;-86
2022/12/26 07:45:33;;;;;;;23.92;11.15;;;8.60;99.90;;;;;;6047730;23;20014;-88
2022/12/26 07:47:59;;;;;;;18.05;9.57;;;8.60;99.90;;;;;;6048542;23;20026;-87
2022/12/26 07:50:26;;;;;;;17.65;10.30;;;8.60;99.90;;;;;;6047701;23;20015;-86
2022/12/26 07:52:52;;;;;;;20.20;11.07;;;8.60;99.90;;;;;;6048673;23;20102;-86
2022/12/26 07:55:18;;;;;;;15.93;9.43;;;8.50;99.90;;;;;;6023416;23;20014;-86
2022/12/26 07:58:08;;;;;;;21.70;9.70;;;8.60;99.90;;;;;;6047285;23;20014;-86
2022/12/26 08:00:33;;;;;;;20.05;10.68;;;8.60;99.90;;;;;;6049648;23;20026;-86
2022/12/26 08:02:59;;;;;;;18.00;9.13;;;8.50;99.90;;;;;;6048817;23;20019;-85
2022/12/26 08:05:25;;;;;;;20.58;10.02;;;8.50;99.90;;;;;;6050251;23;20147;-85
2022/12/26 08:07:53;;;;;;;21.75;11.02;;;8.60;99.90;;;;;;6074647;23;20015;-85
2022/12/26 08:10:19;;;;;;;19.10;9.80;;;8.50;99.90;;;;;;6076006;23;20021;-86
2022/12/26 08:12:45;;;;;;;18.38;9.00;;;8.50;99.90;;;;;;6050455;23;20341;-85
2022/12/26 08:15:15;;;;;;;26.33;10.88;;;8.60;99.90;;;;;;6050053;23;20022;-84
2022/12/26 08:17:40;;;;;;;13.27;7.47;;;8.60;99.90;;;;;;6050174;23;20019;-86
2022/12/26 08:20:06;;;;;;;18.90;10.10;;;8.60;99.90;;;;;;6052531;23;20057;-84
2022/12/26 08:26:21;;;;;;;20.13;10.20;;;8.60;99.90;;;;;;6022619;23;20025;-85
2022/12/26 08:29:05;;;;;;;18.40;9.52;;;8.70;99.90;;;;;;5986039;24;20023;-86
2022/12/26 08:31:31;;;;;;;17.33;8.48;;;8.70;99.90;;;;;;5967118;24;20013;-83
2022/12/26 08:33:59;;;;;;;13.90;6.78;;;8.80;99.90;;;;;;5989003;24;20023;-84
2022/12/26 08:36:25;;;;;;;12.25;7.60;;;8.80;99.90;;;;;;5989110;24;20027;-88
2022/12/26 08:39:15;;;;;;;15.07;8.38;;;8.80;99.90;;;;;;5963547;24;20020;-86
2022/12/26 08:41:41;;;;;;;14.32;7.57;;;8.90;99.90;;;;;;5960860;24;20127;-86
2022/12/26 08:44:11;;;;;;;18.98;7.47;;;8.90;99.90;;;;;;5984990;24;20028;-86
2022/12/26 08:46:37;;;;;;;13.48;7.55;;;9.00;99.90;;;;;;5962188;24;20027;-88
2022/12/26 08:49:03;;;;;;;18.25;8.30;;;9.00;99.90;;;;;;5937727;24;20016;-88
2022/12/26 08:51:29;;;;;;;12.90;7.25;;;9.00;99.90;;;;;;5985120;24;20004;-87
2022/12/26 08:53:54;;;;;;;17.00;7.03;;;9.10;99.90;;;;;;5939780;24;20016;-85
2022/12/26 08:56:24;;;;;;;13.30;7.38;;;9.00;99.90;;;;;;5984945;24;20012;-86
2022/12/26 08:58:50;;;;;;;14.30;7.32;;;9.10;99.90;;;;;;5961054;24;20416;-86
2022/12/26 09:01:20;;;;;;;14.23;6.20;;;9.00;99.90;;;;;;5961986;24;20024;-85
2022/12/26 09:03:46;;;;;;;12.82;6.45;;;9.10;99.90;;;;;;5984803;24;20157;-87
2022/12/26 09:06:14;;;;;;;12.73;6.15;;;9.10;99.90;;;;;;6013071;23;20172;-83
2022/12/26 09:08:40;;;;;;;13.43;6.18;;;9.10;99.90;;;;;;6017019;23;20015;-87
2022/12/26 09:11:12;;;;;;;10.65;6.00;;;9.10;99.90;;;;;;6043455;23;20062;-85
2022/12/26 09:13:39;;;;;;;15.25;6.15;;;9.10;99.90;;;;;;6018651;23;20448;-84
2022/12/26 09:16:17;;;;;;;16.60;5.95;;;9.10;99.90;;;;;;5994370;23;20046;-83
2022/12/26 09:18:44;;;;;;;14.32;5.38;;;9.20;99.90;;;;;;6043625;23;20016;-87
2022/12/26 09:21:11;;;;;;;13.73;6.03;;;9.20;99.90;;;;;;6017495;23;20020;-86
2022/12/26 09:23:41;;;;;;;13.90;5.57;;;9.20;99.90;;;;;;6043428;23;20022;-86
2022/12/26 09:26:18;;;;;;;13.40;5.22;;;9.20;99.90;;;;;;6017437;23;20030;-86
2022/12/26 09:28:45;;;;;;;13.00;3.67;;;9.30;99.90;;;;;;6042853;23;20050;-87
2022/12/26 09:31:20;;;;;;;9.05;4.32;;;9.30;99.90;;;;;;6016464;23;20015;-83
2022/12/26 09:33:46;;;;;;;12.98;4.38;;;9.30;99.90;;;;;;6016880;23;20022;-84
2022/12/26 09:36:18;;;;;;;14.52;3.08;;;9.20;99.90;;;;;;6041621;23;20011;-85
2022/12/26 09:38:45;;;;;;;16.88;4.88;;;9.00;99.90;;;;;;6041597;23;20019;-84
2022/12/26 09:41:45;;;;;;;21.52;4.20;;;8.80;99.90;;;;;;6016933;23;20020;-85
2022/12/26 09:44:24;;;;;;;15.43;4.55;;;8.50;99.90;;;;;;6015462;23;20019;-84
2022/12/26 09:47:27;;;;;;;14.88;3.78;;;8.30;99.90;;;;;;6040544;23;20023;-84
2022/12/26 09:50:30;;;;;;;17.67;4.03;;;8.20;99.90;;;;;;6016636;23;20167;-83
2022/12/26 09:53:10;;;;;;;10.30;2.05;;;8.00;99.90;;;;;;6013935;23;20015;-84
2022/12/26 09:55:43;;;;;;;10.38;2.67;;;7.80;99.90;;;;;;5993274;23;20030;-85
2022/12/26 09:58:28;;;;;;;10.40;2.47;;;7.60;99.90;;;;;;6018084;23;20012;-86
2022/12/26 10:01:07;;;;;;;13.27;2.20;;;7.50;99.90;;;;;;6050064;23;20017;-81
2022/12/26 10:04:08;;;;;;;17.98;2.95;;;7.50;99.90;;;;;;6051775;23;20129;-89
2022/12/26 10:06:39;;;;;;;12.85;1.80;;;7.40;99.90;;;;;;6062366;23;20529;-84
2022/12/26 10:09:10;;;;;;;11.10;1.75;;;7.30;99.90;;;;;;6065813;23;20019;-83
2022/12/26 10:12:04;;;;;;;17.42;3.05;;;7.30;99.90;;;;;;6057217;23;20019;-83
2022/12/26 10:14:48;;;;;;;18.73;2.33;;;7.30;99.90;;;;;;6050927;23;20018;-86
2022/12/26 10:17:29;;;;;;;11.90;2.03;;;7.40;99.90;;;;;;6076659;23;20014;-85
2022/12/26 10:20:35;;;;;;;11.70;1.90;;;7.40;99.90;;;;;;6051093;23;20065;-84
2022/12/26 10:23:20;;;;;;;10.93;1.88;;;7.40;99.90;;;;;;6075622;23;20026;-85
2022/12/26 10:25:48;;;;;;;10.60;2.40;;;7.40;99.90;;;;;;6076054;23;20022;-89
2022/12/26 10:28:27;;;;;;;12.77;1.60;;;7.50;99.90;;;;;;6076496;23;20022;-84
2022/12/26 10:30:55;;;;;;;10.55;1.83;;;7.50;99.90;;;;;;6025600;23;20015;-84
2022/12/26 10:33:35;;;;;;;16.77;2.47;;;7.50;99.90;;;;;;6049440;23;20110;-85
2022/12/26 10:36:01;;;;;;;14.40;1.92;;;7.40;99.90;;;;;;6074937;23;20011;-87
2022/12/26 10:38:40;;;;;;;12.27;2.63;;;7.50;99.90;;;;;;6026614;23;20026;-84
2022/12/26 10:41:25;;;;;;;16.15;2.72;;;7.40;99.90;;;;;;6074270;23;20047;-85
2022/12/26 10:43:51;;;;;;;14.98;2.25;;;7.40;99.90;;;;;;6075081;23;20015;-85
2022/12/26 10:46:16;;;;;;;12.18;1.92;;;7.40;99.90;;;;;;6075478;23;20007;-84
2022/12/26 10:48:43;;;;;;;12.40;2.08;;;7.40;99.90;;;;;;6049026;23;20449;-83
2022/12/26 10:51:12;;;;;;;16.52;1.83;;;7.40;99.90;;;;;;6049924;23;20446;-84
2022/12/26 10:53:45;;;;;;;17.38;1.95;;;7.30;99.90;;;;;;6073826;23;20014;-84
2022/12/26 10:56:11;;;;;;;13.98;1.55;;;7.30;99.90;;;;;;6074926;23;20014;-84
2022/12/26 10:58:38;;;;;;;17.95;1.92;;;7.30;99.90;;;;;;6074941;23;20026;-86
2022/12/26 11:01:31;;;;;;;14.48;1.85;;;7.30;99.90;;;;;;6049494;23;20018;-87
2022/12/26 11:04:01;;;;;;;11.57;1.48;;;7.30;99.90;;;;;;6048530;23;20382;-81
2022/12/26 11:06:32;;;;;;;12.00;1.48;;;7.30;99.90;;;;;;6049422;23;20392;-85
2022/12/26 11:08:58;;;;;;;9.35;1.65;;;7.30;99.90;;;;;;6025609;23;20081;-87
2022/12/26 11:11:44;;;;;;;10.40;1.60;;;7.30;99.90;;;;;;6024996;23;20109;-85
2022/12/26 11:14:27;;;;;;;7.53;1.25;;;7.30;99.90;;;;;;6048729;23;20026;-85
2022/12/26 11:16:57;;;;;;;9.63;1.48;;;7.30;99.90;;;;;;6048271;23;20086;-85
2022/12/26 11:19:38;;;;;;;9.57;1.33;;;7.30;99.90;;;;;;6048444;23;20018;-86
2022/12/26 11:22:21;;;;;;;8.88;1.58;;;7.30;99.90;;;;;;6074854;23;20341;-88
2022/12/26 11:25:08;;;;;;;8.88;2.10;;;7.30;99.90;;;;;;6072593;23;20022;-86
2022/12/26 11:27:37;;;;;;;10.15;1.75;;;7.20;99.90;;;;;;6075067;23;20327;-83
2022/12/26 11:30:23;;;;;;;14.50;1.95;;;7.20;99.90;;;;;;6048867;23;20015;-83
2022/12/26 11:33:03;;;;;;;14.10;1.90;;;7.20;99.90;;;;;;6047776;23;20066;-83
2022/12/26 11:35:35;;;;;;;18.13;2.10;;;7.20;99.90;;;;;;6047747;23;20341;-84
2022/12/26 11:38:06;;;;;;;18.23;3.25;;;7.20;99.90;;;;;;6047817;23;20017;-83
2022/12/26 11:41:30;;;;;;;14.90;2.72;;;7.20;99.90;;;;;;6073212;23;20015;-84
2022/12/26 11:43:32;;;;;;;19.17;3.65;;;7.20;99.90;;;;;;6047273;23;20022;-83
2022/12/26 11:45:58;;;;;;;14.30;3.13;;;7.40;99.90;;;;;;6047102;23;20010;-84
2022/12/26 11:48:25;;;;;;;15.07;2.03;;;7.60;99.90;;;;;;6022784;23;20022;-84
2022/12/26 11:50:52;;;;;;;16.38;2.35;;;7.60;99.90;;;;;;6023456;23;20015;-81
2022/12/26 11:53:21;;;;;;;12.38;2.15;;;7.70;99.90;;;;;;6046918;23;20006;-85
2022/12/26 11:56:02;;;;;;;14.52;2.17;;;7.80;99.90;;;;;;6047591;23;20015;-83
2022/12/26 11:58:29;;;;;;;12.10;2.72;;;7.80;99.90;;;;;;6047471;23;20025;-84
2022/12/26 12:00:58;;;;;;;12.57;2.28;;;7.90;99.90;;;;;;6073048;23;20015;-85
2022/12/26 12:03:41;;;;;;;9.95;2.22;;;7.90;99.90;;;;;;6072082;23;20085;-81
2022/12/26 12:06:28;;;;;;;19.77;4.03;;;8.00;99.90;;;;;;6071039;23;20022;-84
2022/12/26 12:09:16;;;;;;;13.25;1.75;;;8.00;99.90;;;;;;6073478;23;20330;-83
2022/12/26 12:12:15;;;;;;;10.88;2.15;;;8.00;99.90;;;;;;6072684;23;20011;-81
2022/12/26 12:14:59;;;;;;;14.93;2.10;;;8.10;99.90;;;;;;6048858;23;20015;-85
2022/12/26 12:17:49;;;;;;;11.80;2.17;;;8.10;99.90;;;;;;6074579;23;20003;-83
2022/12/26 12:20:29;;;;;;;13.32;2.55;;;8.20;99.90;;;;;;6047296;23;20310;-84
2022/12/26 12:23:16;;;;;;;13.48;1.90;;;8.20;99.90;;;;;;6048861;23;20018;-85
2022/12/26 12:25:52;;;;;;;16.65;3.03;;;8.20;99.90;;;;;;6025346;23;20022;-86
2022/12/26 12:28:58;;;;;;;11.95;2.25;;;8.30;99.90;;;;;;6072010;23;20015;-82
2022/12/26 12:31:34;;;;;;;13.20;2.42;;;8.30;99.90;;;;;;6073986;23;20049;-84
2022/12/26 12:34:20;;;;;;;14.25;3.42;;;8.30;99.90;;;;;;6047331;23;20021;-82
2022/12/26 12:37:37;;;;;;;11.13;1.73;;;8.40;99.90;;;;;;6074276;23;20065;-83
2022/12/26 12:40:29;;;;;;;10.30;2.10;;;8.40;99.90;;;;;;6024530;23;20014;-84
2022/12/26 12:43:27;;;;;;;13.68;2.00;;;8.30;99.90;;;;;;5958573;24;20008;-82
2022/12/26 12:46:17;;;;;;;13.68;2.25;;;8.40;99.90;;;;;;5950336;24;20028;-83
2022/12/26 12:48:51;;;;;;;17.65;2.92;;;8.40;99.90;;;;;;5935528;24;20059;-84
2022/12/26 12:51:40;;;;;;;11.70;2.33;;;8.40;99.90;;;;;;5960421;24;20024;-89
2022/12/26 12:54:23;;;;;;;17.83;2.80;;;8.40;99.90;;;;;;5938475;24;20048;-88
2022/12/26 12:57:05;;;;;;;15.63;2.67;;;8.40;99.90;;;;;;5937327;24;20408;-84
2022/12/26 12:59:58;;;;;;;13.77;2.30;;;8.50;99.90;;;;;;5958387;24;20020;-86
2022/12/26 13:02:42;;;;;;;11.95;1.88;;;8.60;99.90;;;;;;5960002;24;20044;-86
2022/12/26 13:05:40;;;;;;;8.48;1.80;;;8.60;99.90;;;;;;5937390;24;20016;-88
2022/12/26 13:08:24;;;;;;;16.88;2.05;;;8.80;99.90;;;;;;6023393;23;20023;-85
2022/12/26 13:10:55;;;;;;;12.95;1.65;;;8.90;99.90;;;;;;6073913;23;20045;-86
2022/12/26 13:13:25;;;;;;;11.88;1.83;;;8.90;99.90;;;;;;6075679;23;20014;-87
2022/12/26 13:15:56;;;;;;;13.70;2.58;;;8.80;99.90;;;;;;6025301;23;20022;-84
2022/12/26 13:18:28;;;;;;;11.05;1.75;;;8.80;99.90;;;;;;6073508;23;20015;-89
2022/12/26 13:21:04;;;;;;;13.38;1.75;;;9.00;99.90;;;;;;6047808;23;20536;-88
2022/12/26 13:26:29;;;;;;;15.70;2.08;;;9.00;99.90;;;;;;6047594;23;20025;-83
2022/12/26 13:29:01;;;;;;;13.32;1.90;;;8.90;99.90;;;;;;6074533;23;20019;-80
2022/12/26 13:31:33;;;;;;;11.50;1.80;;;8.80;99.90;;;;;;6050836;23;20047;-87
2022/12/26 13:33:59;;;;;;;11.85;1.90;;;8.80;99.90;;;;;;6049870;23;20015;-87
2022/12/26 13:36:38;;;;;;;8.80;1.58;;;8.90;99.90;;;;;;6075288;23;20007;-83
2022/12/26 13:39:10;;;;;;;11.75;1.40;;;9.10;99.90;;;;;;6074448;23;20015;-86
2022/12/26 13:44:20;;;;;;;10.57;2.03;;;8.90;99.90;;;;;;6073714;23;20105;-82
2022/12/26 13:46:45;;;;;;;14.60;1.85;;;8.90;99.90;;;;;;6074963;23;20558;-85
2022/12/26 13:49:37;;;;;;;12.48;2.00;;;8.80;99.90;;;;;;6074699;23;20022;-84
2022/12/26 13:52:09;;;;;;;8.32;1.65;;;8.80;99.90;;;;;;6074226;23;20059;-81
2022/12/26 13:54:56;;;;;;;13.23;2.17;;;8.70;99.90;;;;;;6048477;23;20014;-80
2022/12/26 13:57:43;;;;;;;10.30;1.88;;;8.60;99.90;;;;;;6075304;23;20022;-86
2022/12/26 14:00:39;;;;;;;15.70;2.42;;;8.50;99.90;;;;;;6025709;23;20026;-85
2022/12/26 14:03:14;;;;;;;20.35;3.35;;;8.40;99.90;;;;;;6049892;23;20057;-86
2022/12/26 14:06:03;;;;;;;20.95;4.72;;;8.40;99.90;;;;;;6073601;23;20014;-86
2022/12/26 14:09:04;;;;;;;13.38;2.55;;;8.40;99.90;;;;;;6073550;23;20150;-82
2022/12/26 14:11:57;;;;;;;10.68;1.80;;;8.60;99.90;;;;;;6024760;23;20018;-83
2022/12/26 14:14:47;;;;;;;13.43;2.38;;;8.70;99.90;;;;;;6074228;23;20444;-85
2022/12/26 14:17:43;;;;;;;8.10;1.55;;;8.70;99.90;;;;;;6048650;23;20327;-87
2022/12/26 14:20:30;;;;;;;9.52;1.67;;;8.50;99.90;;;;;;6075241;23;20015;-84
2022/12/26 14:23:24;;;;;;;12.57;2.58;;;8.30;99.90;;;;;;6048647;23;20022;-83
2022/12/26 14:26:41;;;;;;;12.05;1.83;;;8.00;99.90;;;;;;6074829;23;20059;-81
2022/12/26 14:29:19;;;;;;;22.25;2.38;;;7.70;99.90;;;;;;6001282;23;20019;-83
2022/12/26 14:31:44;;;;;;;14.65;3.42;;;7.50;99.90;;;;;;6073463;23;20330;-82
2022/12/26 14:34:30;;;;;;;16.40;2.53;;;7.40;99.90;;;;;;6047288;23;20017;-80
2022/12/26 14:37:17;;;;;;;10.43;2.58;;;7.30;99.90;;;;;;6046996;23;20018;-83
2022/12/26 14:40:07;;;;;;;18.65;2.47;;;7.20;99.90;;;;;;6072927;23;20019;-82
2022/12/26 14:43:10;;;;;;;14.68;1.85;;;7.20;99.90;;;;;;6074422;23;20010;-80
2022/12/26 14:45:39;;;;;;;12.05;1.58;;;7.10;99.90;;;;;;6048472;23;20019;-80
2022/12/26 14:48:37;;;;;;;16.85;2.83;;;7.10;99.90;;;;;;6073699;23;20015;-80
2022/12/26 14:51:03;;;;;;;13.82;1.75;;;7.00;99.90;;;;;;6047192;23;20400;-84
2022/12/26 14:53:33;;;;;;;11.82;1.85;;;6.90;99.90;;;;;;6048176;23;20015;-84
2022/12/26 14:56:30;;;;;;;16.00;2.97;;;6.90;99.90;;;;;;6048348;23;20015;-80
2022/12/26 14:59:33;;;;;;;13.52;2.70;;;6.80;99.90;;;;;;6048118;23;20098;-84
2022/12/26 15:02:24;;;;;;;12.68;2.00;;;6.80;99.90;;;;;;6072908;23;20349;-84
2022/12/26 15:04:55;;;;;;;12.63;2.08;;;6.70;99.90;;;;;;6049146;23;20025;-82
2022/12/26 15:07:43;;;;;;;24.77;6.50;;;6.60;99.90;;;;;;6049330;23;20015;-87
2022/12/26 15:10:18;;;;;;;13.65;2.55;;;6.60;99.90;;;;;;6058620;23;20023;-81
2022/12/26 15:13:23;;;;;;;17.77;3.63;;;6.50;99.90;;;;;;6092107;23;20022;-85
2022/12/26 15:16:05;;;;;;;25.60;6.65;;;6.50;99.90;;;;;;6077079;23;20015;-84
2022/12/26 15:19:28;;;;;;;25.60;6.45;;;6.40;99.90;;;;;;6075157;23;20373;-79
2022/12/26 15:22:03;;;;;;;28.17;6.85;;;6.40;99.90;;;;;;5934165;24;20103;-83
2022/12/26 15:24:37;;;;;;;14.20;4.03;;;6.30;99.90;;;;;;5911348;24;20049;-84
2022/12/26 15:27:30;;;;;;;9.27;2.57;;;6.30;99.90;;;;;;6001230;23;20019;-84
2022/12/26 15:30:28;;;;;;;16.40;3.53;;;6.20;99.90;;;;;;6070748;23;20019;-83
2022/12/26 15:33:13;;;;;;;13.55;2.40;;;6.20;99.90;;;;;;6048158;23;20011;-80
2022/12/26 15:36:01;;;;;;;15.20;2.17;;;6.10;99.90;;;;;;6047117;23;20014;-82
2022/12/26 15:38:51;;;;;;;14.48;2.45;;;6.10;99.90;;;;;;6047517;23;20322;-81
2022/12/26 15:41:34;;;;;;;14.48;2.40;;;6.00;99.90;;;;;;6073571;23;20093;-86
2022/12/26 15:44:18;;;;;;;12.27;1.50;;;5.90;99.90;;;;;;6072894;23;20078;-82
2022/12/26 15:47:24;;;;;;;16.67;2.58;;;5.90;99.90;;;;;;6073171;23;20030;-84
2022/12/26 15:50:07;;;;;;;19.10;2.88;;;5.80;99.90;;;;;;6047843;23;20070;-84
2022/12/26 15:52:50;;;;;;;13.38;2.85;;;5.80;99.90;;;;;;6047501;23;20015;-80
2022/12/26 15:55:36;;;;;;;13.95;2.50;;;5.70;99.90;;;;;;6047967;23;20011;-82
2022/12/26 15:58:10;;;;;;;11.23;2.45;;;5.70;99.90;;;;;;6073148;23;20014;-85
2022/12/26 16:00:50;;;;;;;18.83;4.15;;;5.60;99.90;;;;;;6072116;23;20015;-83
2022/12/26 16:03:39;;;;;;;18.10;2.83;;;5.60;99.90;;;;;;6072002;23;20062;-87
2022/12/26 16:06:47;;;;;;;12.95;2.38;;;5.50;99.90;;;;;;6074150;23;20021;-84
2022/12/26 16:09:43;;;;;;;9.98;2.53;;;5.40;99.90;;;;;;6048168;23;20014;-80
2022/12/26 16:12:34;;;;;;;13.10;2.40;;;5.30;99.90;;;;;;6047820;23;20441;-88
2022/12/26 16:15:09;;;;;;;12.80;1.85;;;5.30;99.90;;;;;;6035005;23;20011;-87
2022/12/26 16:17:35;;;;;;;16.10;1.60;;;5.20;99.90;;;;;;6072703;23;20015;-81
2022/12/26 16:22:42;;;;;;;9.80;1.98;;;5.20;99.90;;;;;;6048288;23;20315;-84
2022/12/26 16:23:04;;;;;;;9.15;1.70;;;5.10;99.90;;;;;;6072576;23;20022;-82
2022/12/26 16:25:30;;;;;;;13.90;2.50;;;5.10;99.90;;;;;;6048217;23;20403;-84
2022/12/26 16:27:58;;;;;;;11.00;2.00;;;5.00;99.90;;;;;;6072271;23;20034;-86
2022/12/26 16:30:27;;;;;;;14.15;2.10;;;5.00;99.90;;;;;;6071748;23;20094;-86
2022/12/26 16:32:53;;;;;;;14.63;2.40;;;5.00;99.90;;;;;;6072994;23;20011;-83
2022/12/26 16:35:25;;;;;;;16.48;3.63;;;4.90;99.90;;;;;;6073921;23;20125;-88
2022/12/26 16:37:53;;;;;;;20.40;4.80;;;4.90;99.90;;;;;;6046573;23;20015;-84
2022/12/26 16:40:24;;;;;;;25.55;5.15;;;4.90;99.90;;;;;;6072848;23;20015;-81
2022/12/26 16:42:58;;;;;;;24.42;6.32;;;4.80;99.90;;;;;;6073091;23;20098;-84
2022/12/26 16:45:25;;;;;;;24.90;5.35;;;4.70;99.90;;;;;;6074077;23;20007;-83
2022/12/26 16:47:53;;;;;;;29.85;8.35;;;4.70;99.90;;;;;;6072784;23;20014;-81
2022/12/26 16:50:22;;;;;;;20.35;5.43;;;4.70;99.90;;;;;;6072159;23;20450;-85
2022/12/26 16:52:49;;;;;;;18.58;5.07;;;4.60;99.90;;;;;;6072933;23;20011;-87
2022/12/26 16:55:26;;;;;;;19.52;5.07;;;4.60;99.90;;;;;;6073146;23;20011;-80
2022/12/26 16:57:55;;;;;;;20.52;3.58;;;4.60;99.90;;;;;;6046670;23;20097;-85
2022/12/26 17:00:22;;;;;;;19.35;5.20;;;4.60;99.90;;;;;;6047376;23;20026;-84
2022/12/26 17:02:50;;;;;;;20.95;4.18;;;4.60;99.90;;;;;;6025708;23;20345;-85
2022/12/26 17:05:29;;;;;;;17.88;4.72;;;4.60;99.90;;;;;;6073865;23;20085;-84
2022/12/26 17:07:59;;;;;;;18.27;3.30;;;4.60;99.90;;;;;;6074860;23;20101;-81
2022/12/26 17:10:35;;;;;;;17.95;4.00;;;4.60;99.90;;;;;;6074468;23;20041;-88
2022/12/26 17:13:05;;;;;;;19.50;4.07;;;4.60;99.90;;;;;;6048877;23;20018;-87
2022/12/26 17:15:35;;;;;;;11.15;2.03;;;4.60;99.90;;;;;;6049223;23;20021;-82
2022/12/26 17:18:30;;;;;;;19.02;3.17;;;4.60;99.90;;;;;;6074766;23;20022;-83
2022/12/26 17:21:19;;;;;;;14.07;1.90;;;4.60;99.90;;;;;;6049008;23;20030;-83
2022/12/26 17:24:10;;;;;;;11.20;1.77;;;4.60;99.90;;;;;;6075821;23;20066;-83
2022/12/26 17:26:37;;;;;;;11.27;2.22;;;4.50;99.90;;;;;;6048939;23;20022;-85
2022/12/26 17:29:04;;;;;;;14.63;2.58;;;4.40;99.90;;;;;;6075039;23;20094;-83
2022/12/26 17:31:32;;;;;;;12.90;2.30;;;4.50;99.90;;;;;;6048513;23;20014;-79
2022/12/26 17:34:00;;;;;;;12.63;2.65;;;4.40;99.90;;;;;;6048268;23;20015;-85
2022/12/26 17:36:31;;;;;;;13.27;2.50;;;4.40;99.90;;;;;;6075447;23;20011;-81
2022/12/26 17:39:11;;;;;;;16.58;2.20;;;4.30;99.90;;;;;;6049187;23;20105;-87
2022/12/26 17:41:42;;;;;;;15.85;2.22;;;4.30;99.90;;;;;;6074282;23;20026;-83
2022/12/26 17:44:44;;;;;;;13.48;2.53;;;4.30;99.90;;;;;;6049778;23;20025;-84
2022/12/26 17:47:27;;;;;;;12.93;2.30;;;4.20;99.90;;;;;;5958281;24;20455;-84
2022/12/26 17:49:54;;;;;;;23.38;3.45;;;4.20;99.90;;;;;;6039239;23;20018;-87
2022/12/26 17:52:27;;;;;;;13.88;2.60;;;4.20;99.90;;;;;;6049190;23;20030;-83
2022/12/26 17:54:55;;;;;;;11.27;2.20;;;4.20;99.90;;;;;;6049070;23;20426;-80
2022/12/26 17:57:23;;;;;;;8.40;1.75;;;4.20;99.90;;;;;;6024676;23;20019;-83
2022/12/26 17:59:50;;;;;;;18.20;4.00;;;4.30;99.90;;;;;;6074388;23;20089;-85
2022/12/26 18:02:17;;;;;;;9.82;3.65;;;4.20;99.90;;;;;;6048201;23;20089;-82
2022/12/26 18:04:43;;;;;;;15.85;2.40;;;4.20;99.90;;;;;;6049065;23;20442;-82
2022/12/26 18:07:16;;;;;;;14.20;1.83;;;4.20;99.90;;;;;;6073694;23;20071;-84
2022/12/26 18:09:43;;;;;;;9.70;2.25;;;4.20;99.90;;;;;;6073594;23;20015;-82
2022/12/26 18:12:12;;;;;;;16.27;3.35;;;4.10;99.90;;;;;;6048440;23;20048;-79
2022/12/26 18:14:38;;;;;;;7.97;1.90;;;4.20;99.90;;;;;;6072948;23;20018;-83
2022/12/26 18:17:04;;;;;;;10.88;2.00;;;4.20;99.90;;;;;;6048753;23;20033;-84
2022/12/26 18:19:30;;;;;;;14.88;2.55;;;4.20;99.90;;;;;;6074301;23;20015;-83
2022/12/26 18:21:56;;;;;;;17.08;2.33;;;4.20;99.90;;;;;;6073210;23;20468;-80
2022/12/26 18:24:21;;;;;;;9.93;2.50;;;4.30;99.90;;;;;;6048487;23;20066;-85
2022/12/26 18:26:48;;;;;;;12.75;2.35;;;4.30;99.90;;;;;;6073300;23;20011;-84
2022/12/26 18:29:14;;;;;;;11.35;2.67;;;4.40;99.90;;;;;;6048602;23;20093;-83
2022/12/26 18:31:40;;;;;;;17.63;2.97;;;4.40;99.90;;;;;;6048273;23;20022;-83
2022/12/26 18:34:05;;;;;;;19.55;3.58;;;4.40;99.90;;;;;;6048663;23;20102;-83
2022/12/26 18:36:34;;;;;;;14.50;1.77;;;4.40;99.90;;;;;;6048714;23;20015;-81
2022/12/26 18:39:00;;;;;;;12.40;2.35;;;4.40;99.90;;;;;;6049228;23;20125;-80
2022/12/26 18:41:26;;;;;;;13.07;2.58;;;4.40;99.90;;;;;;6073357;23;20022;-81
2022/12/26 18:43:51;;;;;;;8.95;1.70;;;4.40;99.90;;;;;;6073917;23;20018;-80
2022/12/26 18:46:19;;;;;;;8.32;1.70;;;4.40;99.90;;;;;;6025281;23;20014;-89